sensor_id;sensor_type;location;lat;lon;timestamp;temperature;humidity
66670;DHT22;53568;52.164;4.472;2024-02-15T00:01:58;14.11;82.50
66670;DHT22;53568;52.164;4.472;2024-02-15T00:04:24;14.05;82.61
66670;DHT22;53568;52.164;4.472;2024-02-15T00:06:49;14.04;82.76
66670;DHT22;53568;52.164;4.472;2024-02-15T00:09:15;14.05;82.65
66670;DHT22;53568;52.164;4.472;2024-02-15T00:11:40;14.01;82.86
66670;DHT22;53568;52.164;4.472;2024-02-15T00:14:06;13.94;83.18
66670;DHT22;53568;52.164;4.472;2024-02-15T00:16:36;14.02;83.36
66670;DHT22;53568;52.164;4.472;2024-02-15T00:19:02;14.07;83.18
66670;DHT22;53568;52.164;4.472;2024-02-15T00:21:27;14.07;82.94
66670;DHT22;53568;52.164;4.472;2024-02-15T00:23:53;14.00;82.83
66670;DHT22;53568;52.164;4.472;2024-02-15T00:26:21;14.09;82.92
66670;DHT22;53568;52.164;4.472;2024-02-15T00:28:47;14.09;82.80
66670;DHT22;53568;52.164;4.472;2024-02-15T00:31:13;14.05;83.07
66670;DHT22;53568;52.164;4.472;2024-02-15T00:33:38;13.98;83.08
66670;DHT22;53568;52.164;4.472;2024-02-15T00:36:04;14.02;82.86
66670;DHT22;53568;52.164;4.472;2024-02-15T00:38:34;14.07;83.01
66670;DHT22;53568;52.164;4.472;2024-02-15T00:41:00;14.07;82.85
66670;DHT22;53568;52.164;4.472;2024-02-15T00:43:26;13.97;83.15
66670;DHT22;53568;52.164;4.472;2024-02-15T00:45:52;13.97;83.13
66670;DHT22;53568;52.164;4.472;2024-02-15T00:48:18;14.01;83.00
66670;DHT22;53568;52.164;4.472;2024-02-15T00:50:43;14.01;83.12
66670;DHT22;53568;52.164;4.472;2024-02-15T00:53:09;14.02;83.08
66670;DHT22;53568;52.164;4.472;2024-02-15T00:55:35;13.91;83.67
66670;DHT22;53568;52.164;4.472;2024-02-15T00:58:00;13.98;83.35
66670;DHT22;53568;52.164;4.472;2024-02-15T01:00:26;13.98;83.02
66670;DHT22;53568;52.164;4.472;2024-02-15T01:02:51;13.97;83.15
66670;DHT22;53568;52.164;4.472;2024-02-15T01:05:18;13.94;83.45
66670;DHT22;53568;52.164;4.472;2024-02-15T01:07:44;13.95;83.57
66670;DHT22;53568;52.164;4.472;2024-02-15T01:10:10;13.95;83.50
66670;DHT22;53568;52.164;4.472;2024-02-15T01:12:35;13.97;83.46
66670;DHT22;53568;52.164;4.472;2024-02-15T01:15:01;13.89;84.00
66670;DHT22;53568;52.164;4.472;2024-02-15T01:17:28;13.95;83.74
66670;DHT22;53568;52.164;4.472;2024-02-15T01:19:54;13.98;83.83
66670;DHT22;53568;52.164;4.472;2024-02-15T01:22:19;13.98;83.79
66670;DHT22;53568;52.164;4.472;2024-02-15T01:24:45;14.02;83.56
66670;DHT22;53568;52.164;4.472;2024-02-15T01:27:10;14.02;83.44
66670;DHT22;53568;52.164;4.472;2024-02-15T01:29:36;14.05;83.49
66670;DHT22;53568;52.164;4.472;2024-02-15T01:32:02;14.11;83.55
66670;DHT22;53568;52.164;4.472;2024-02-15T01:34:28;14.17;83.06
66670;DHT22;53568;52.164;4.472;2024-02-15T01:36:53;14.17;83.24
66670;DHT22;53568;52.164;4.472;2024-02-15T01:39:19;14.05;83.60
66670;DHT22;53568;52.164;4.472;2024-02-15T01:41:48;14.17;83.26
66670;DHT22;53568;52.164;4.472;2024-02-15T01:44:16;14.15;83.06
66670;DHT22;53568;52.164;4.472;2024-02-15T01:46:43;14.19;83.06
66670;DHT22;53568;52.164;4.472;2024-02-15T01:49:09;14.21;83.02
66670;DHT22;53568;52.164;4.472;2024-02-15T01:51:36;14.19;83.07
66670;DHT22;53568;52.164;4.472;2024-02-15T01:54:03;14.29;82.65
66670;DHT22;53568;52.164;4.472;2024-02-15T01:56:29;14.12;82.77
66670;DHT22;53568;52.164;4.472;2024-02-15T01:58:57;14.12;83.00
66670;DHT22;53568;52.164;4.472;2024-02-15T02:01:23;14.18;83.02
66670;DHT22;53568;52.164;4.472;2024-02-15T02:03:48;14.21;82.71
66670;DHT22;53568;52.164;4.472;2024-02-15T02:06:14;14.29;82.61
66670;DHT22;53568;52.164;4.472;2024-02-15T02:08:41;14.29;82.53
66670;DHT22;53568;52.164;4.472;2024-02-15T02:11:06;14.35;82.39
66670;DHT22;53568;52.164;4.472;2024-02-15T02:13:32;14.29;82.30
66670;DHT22;53568;52.164;4.472;2024-02-15T02:15:58;14.26;82.26
66670;DHT22;53568;52.164;4.472;2024-02-15T02:18:25;14.29;82.46
66670;DHT22;53568;52.164;4.472;2024-02-15T02:20:50;14.26;82.00
66670;DHT22;53568;52.164;4.472;2024-02-15T02:23:17;14.28;82.14
66670;DHT22;53568;52.164;4.472;2024-02-15T02:25:47;14.32;81.88
66670;DHT22;53568;52.164;4.472;2024-02-15T02:28:15;14.33;81.76
66670;DHT22;53568;52.164;4.472;2024-02-15T02:30:42;14.21;81.96
66670;DHT22;53568;52.164;4.472;2024-02-15T02:33:11;14.17;82.28
66670;DHT22;53568;52.164;4.472;2024-02-15T02:35:44;14.21;82.21
66670;DHT22;53568;52.164;4.472;2024-02-15T02:38:11;14.25;82.25
66670;DHT22;53568;52.164;4.472;2024-02-15T02:40:36;14.21;82.12
66670;DHT22;53568;52.164;4.472;2024-02-15T02:43:02;14.28;81.94
66670;DHT22;53568;52.164;4.472;2024-02-15T02:45:27;14.26;81.79
66670;DHT22;53568;52.164;4.472;2024-02-15T02:47:53;14.21;82.06
66670;DHT22;53568;52.164;4.472;2024-02-15T02:50:21;14.25;82.05
66670;DHT22;53568;52.164;4.472;2024-02-15T02:52:47;14.19;82.31
66670;DHT22;53568;52.164;4.472;2024-02-15T02:55:14;14.25;82.03
66670;DHT22;53568;52.164;4.472;2024-02-15T02:57:40;14.14;82.22
66670;DHT22;53568;52.164;4.472;2024-02-15T03:00:09;14.22;82.10
66670;DHT22;53568;52.164;4.472;2024-02-15T03:02:45;14.18;82.33
66670;DHT22;53568;52.164;4.472;2024-02-15T03:05:10;14.21;82.24
66670;DHT22;53568;52.164;4.472;2024-02-15T03:07:39;14.19;82.38
66670;DHT22;53568;52.164;4.472;2024-02-15T03:10:08;14.19;82.41
66670;DHT22;53568;52.164;4.472;2024-02-15T03:12:38;14.11;83.00
66670;DHT22;53568;52.164;4.472;2024-02-15T03:15:05;14.09;82.91
66670;DHT22;53568;52.164;4.472;2024-02-15T03:17:40;14.12;83.12
66670;DHT22;53568;52.164;4.472;2024-02-15T03:20:07;14.09;83.21
66670;DHT22;53568;52.164;4.472;2024-02-15T03:22:38;14.07;83.60
66670;DHT22;53568;52.164;4.472;2024-02-15T03:25:05;14.12;83.52
66670;DHT22;53568;52.164;4.472;2024-02-15T03:27:34;14.09;83.60
66670;DHT22;53568;52.164;4.472;2024-02-15T03:30:01;14.08;83.69
66670;DHT22;53568;52.164;4.472;2024-02-15T03:32:27;14.11;83.57
66670;DHT22;53568;52.164;4.472;2024-02-15T03:34:52;14.09;83.66
66670;DHT22;53568;52.164;4.472;2024-02-15T03:37:19;14.05;83.95
66670;DHT22;53568;52.164;4.472;2024-02-15T03:39:46;14.09;84.00
66670;DHT22;53568;52.164;4.472;2024-02-15T03:42:11;13.95;84.58
66670;DHT22;53568;52.164;4.472;2024-02-15T03:44:37;13.98;84.73
66670;DHT22;53568;52.164;4.472;2024-02-15T03:47:04;13.95;84.72
66670;DHT22;53568;52.164;4.472;2024-02-15T03:49:30;13.97;84.90
66670;DHT22;53568;52.164;4.472;2024-02-15T03:51:57;13.95;84.95
66670;DHT22;53568;52.164;4.472;2024-02-15T03:54:28;13.87;85.68
66670;DHT22;53568;52.164;4.472;2024-02-15T03:56:55;13.92;85.54
66670;DHT22;53568;52.164;4.472;2024-02-15T03:59:23;13.95;85.50
66670;DHT22;53568;52.164;4.472;2024-02-15T04:01:55;14.08;85.36
66670;DHT22;53568;52.164;4.472;2024-02-15T04:04:21;14.07;85.14
66670;DHT22;53568;52.164;4.472;2024-02-15T04:06:51;14.08;85.40
66670;DHT22;53568;52.164;4.472;2024-02-15T04:09:17;14.09;85.25
66670;DHT22;53568;52.164;4.472;2024-02-15T04:11:44;14.07;85.14
66670;DHT22;53568;52.164;4.472;2024-02-15T04:14:12;14.05;85.41
66670;DHT22;53568;52.164;4.472;2024-02-15T04:16:38;14.04;85.45
66670;DHT22;53568;52.164;4.472;2024-02-15T04:19:04;14.07;85.44
66670;DHT22;53568;52.164;4.472;2024-02-15T04:21:29;14.02;85.66
66670;DHT22;53568;52.164;4.472;2024-02-15T04:23:56;14.00;85.49
66670;DHT22;53568;52.164;4.472;2024-02-15T04:26:22;14.11;85.39
66670;DHT22;53568;52.164;4.472;2024-02-15T04:28:55;14.05;85.72
66670;DHT22;53568;52.164;4.472;2024-02-15T04:31:20;14.08;85.37
66670;DHT22;53568;52.164;4.472;2024-02-15T04:33:53;14.04;85.52
66670;DHT22;53568;52.164;4.472;2024-02-15T04:36:18;14.11;85.47
66670;DHT22;53568;52.164;4.472;2024-02-15T04:38:49;14.08;85.39
66670;DHT22;53568;52.164;4.472;2024-02-15T04:41:16;14.08;85.53
66670;DHT22;53568;52.164;4.472;2024-02-15T04:43:49;14.04;85.67
66670;DHT22;53568;52.164;4.472;2024-02-15T04:46:14;14.07;85.80
66670;DHT22;53568;52.164;4.472;2024-02-15T04:48:41;14.02;85.88
66670;DHT22;53568;52.164;4.472;2024-02-15T04:51:10;14.05;85.89
66670;DHT22;53568;52.164;4.472;2024-02-15T04:53:36;13.92;86.43
66670;DHT22;53568;52.164;4.472;2024-02-15T04:56:07;14.00;85.99
66670;DHT22;53568;52.164;4.472;2024-02-15T04:58:41;13.97;86.09
66670;DHT22;53568;52.164;4.472;2024-02-15T05:01:17;13.91;86.08
66670;DHT22;53568;52.164;4.472;2024-02-15T05:03:44;13.94;86.29
66670;DHT22;53568;52.164;4.472;2024-02-15T05:06:09;13.85;86.60
66670;DHT22;53568;52.164;4.472;2024-02-15T05:08:36;13.82;86.36
66670;DHT22;53568;52.164;4.472;2024-02-15T05:11:07;13.97;86.24
66670;DHT22;53568;52.164;4.472;2024-02-15T05:13:38;13.94;86.08
66670;DHT22;53568;52.164;4.472;2024-02-15T05:16:04;13.92;86.36
66670;DHT22;53568;52.164;4.472;2024-02-15T05:18:31;13.87;86.10
66670;DHT22;53568;52.164;4.472;2024-02-15T05:20:57;13.95;86.33
66670;DHT22;53568;52.164;4.472;2024-02-15T05:23:23;13.91;86.19
66670;DHT22;53568;52.164;4.472;2024-02-15T05:25:48;13.94;86.12
66670;DHT22;53568;52.164;4.472;2024-02-15T05:28:14;13.91;86.41
66670;DHT22;53568;52.164;4.472;2024-02-15T05:30:39;13.91;86.36
66670;DHT22;53568;52.164;4.472;2024-02-15T05:33:05;13.95;86.11
66670;DHT22;53568;52.164;4.472;2024-02-15T05:35:33;13.98;86.13
66670;DHT22;53568;52.164;4.472;2024-02-15T05:38:00;13.95;86.24
66670;DHT22;53568;52.164;4.472;2024-02-15T05:40:29;13.97;86.33
66670;DHT22;53568;52.164;4.472;2024-02-15T05:42:56;13.97;86.03
66670;DHT22;53568;52.164;4.472;2024-02-15T05:47:51;13.97;86.02
66670;DHT22;53568;52.164;4.472;2024-02-15T05:50:17;14.07;86.03
66670;DHT22;53568;52.164;4.472;2024-02-15T05:52:46;14.09;85.93
66670;DHT22;53568;52.164;4.472;2024-02-15T05:55:12;14.12;85.67
66670;DHT22;53568;52.164;4.472;2024-02-15T05:57:43;14.05;85.87
66670;DHT22;53568;52.164;4.472;2024-02-15T06:00:09;14.02;86.04
66670;DHT22;53568;52.164;4.472;2024-02-15T06:02:34;14.05;86.04
66670;DHT22;53568;52.164;4.472;2024-02-15T06:05:00;13.98;86.14
66670;DHT22;53568;52.164;4.472;2024-02-15T06:07:30;14.09;85.87
66670;DHT22;53568;52.164;4.472;2024-02-15T06:09:59;14.04;85.78
66670;DHT22;53568;52.164;4.472;2024-02-15T06:12:29;14.07;85.81
66670;DHT22;53568;52.164;4.472;2024-02-15T06:14:54;13.95;86.04
66670;DHT22;53568;52.164;4.472;2024-02-15T06:17:20;13.88;86.52
66670;DHT22;53568;52.164;4.472;2024-02-15T06:19:46;14.02;86.26
66670;DHT22;53568;52.164;4.472;2024-02-15T06:22:12;14.00;86.30
66670;DHT22;53568;52.164;4.472;2024-02-15T06:24:38;14.04;86.24
66670;DHT22;53568;52.164;4.472;2024-02-15T06:27:04;14.05;85.98
66670;DHT22;53568;52.164;4.472;2024-02-15T06:29:29;14.00;85.84
66670;DHT22;53568;52.164;4.472;2024-02-15T06:32:13;13.95;86.23
66670;DHT22;53568;52.164;4.472;2024-02-15T06:34:57;14.00;86.05
66670;DHT22;53568;52.164;4.472;2024-02-15T06:37:41;13.94;86.43
66670;DHT22;53568;52.164;4.472;2024-02-15T06:40:25;14.01;86.25
66670;DHT22;53568;52.164;4.472;2024-02-15T06:42:51;14.07;85.83
66670;DHT22;53568;52.164;4.472;2024-02-15T06:45:17;13.95;86.14
66670;DHT22;53568;52.164;4.472;2024-02-15T06:47:46;13.95;86.21
66670;DHT22;53568;52.164;4.472;2024-02-15T06:50:13;13.87;86.77
66670;DHT22;53568;52.164;4.472;2024-02-15T06:52:42;13.94;86.44
66670;DHT22;53568;52.164;4.472;2024-02-15T06:55:09;14.01;86.37
66670;DHT22;53568;52.164;4.472;2024-02-15T06:57:38;14.02;86.33
66670;DHT22;53568;52.164;4.472;2024-02-15T07:00:09;14.05;86.44
66670;DHT22;53568;52.164;4.472;2024-02-15T07:02:39;14.07;86.50
66670;DHT22;53568;52.164;4.472;2024-02-15T07:05:05;14.18;86.12
66670;DHT22;53568;52.164;4.472;2024-02-15T07:07:31;14.15;86.01
66670;DHT22;53568;52.164;4.472;2024-02-15T07:09:57;14.15;85.99
66670;DHT22;53568;52.164;4.472;2024-02-15T07:12:23;14.05;86.20
66670;DHT22;53568;52.164;4.472;2024-02-15T07:14:49;14.11;86.08
66670;DHT22;53568;52.164;4.472;2024-02-15T07:17:14;13.97;86.14
66670;DHT22;53568;52.164;4.472;2024-02-15T07:19:43;14.01;86.03
66670;DHT22;53568;52.164;4.472;2024-02-15T07:22:10;14.02;86.23
66670;DHT22;53568;52.164;4.472;2024-02-15T07:24:35;13.98;86.32
66670;DHT22;53568;52.164;4.472;2024-02-15T07:27:05;14.09;86.19
66670;DHT22;53568;52.164;4.472;2024-02-15T07:29:32;14.08;85.92
66670;DHT22;53568;52.164;4.472;2024-02-15T07:32:01;14.00;86.23
66670;DHT22;53568;52.164;4.472;2024-02-15T07:34:30;14.04;86.37
66670;DHT22;53568;52.164;4.472;2024-02-15T07:36:55;14.07;86.24
66670;DHT22;53568;52.164;4.472;2024-02-15T07:39:23;14.02;86.32
66670;DHT22;53568;52.164;4.472;2024-02-15T07:41:56;14.02;86.25
66670;DHT22;53568;52.164;4.472;2024-02-15T07:44:24;13.94;86.66
66670;DHT22;53568;52.164;4.472;2024-02-15T07:46:50;13.95;86.51
66670;DHT22;53568;52.164;4.472;2024-02-15T07:49:16;13.95;86.64
66670;DHT22;53568;52.164;4.472;2024-02-15T07:51:43;13.97;86.63
66670;DHT22;53568;52.164;4.472;2024-02-15T07:54:09;13.91;86.90
66670;DHT22;53568;52.164;4.472;2024-02-15T07:56:36;14.01;86.57
66670;DHT22;53568;52.164;4.472;2024-02-15T07:59:01;14.01;86.72
66670;DHT22;53568;52.164;4.472;2024-02-15T08:01:28;14.02;86.30
66670;DHT22;53568;52.164;4.472;2024-02-15T08:03:56;14.04;86.67
66670;DHT22;53568;52.164;4.472;2024-02-15T08:06:22;13.97;86.89
66670;DHT22;53568;52.164;4.472;2024-02-15T08:08:50;14.01;86.69
66670;DHT22;53568;52.164;4.472;2024-02-15T08:11:17;13.98;86.79
66670;DHT22;53568;52.164;4.472;2024-02-15T08:13:49;13.98;86.84
66670;DHT22;53568;52.164;4.472;2024-02-15T08:16:16;13.95;86.61
66670;DHT22;53568;52.164;4.472;2024-02-15T08:18:43;14.07;86.61
66670;DHT22;53568;52.164;4.472;2024-02-15T08:21:12;14.09;86.50
66670;DHT22;53568;52.164;4.472;2024-02-15T08:23:38;14.04;86.52
66670;DHT22;53568;52.164;4.472;2024-02-15T08:26:04;14.09;86.44
66670;DHT22;53568;52.164;4.472;2024-02-15T08:28:30;14.09;86.55
66670;DHT22;53568;52.164;4.472;2024-02-15T08:30:56;14.09;86.28
66670;DHT22;53568;52.164;4.472;2024-02-15T08:33:24;14.14;86.34
66670;DHT22;53568;52.164;4.472;2024-02-15T08:35:51;14.19;86.21
66670;DHT22;53568;52.164;4.472;2024-02-15T08:38:17;14.15;86.25
66670;DHT22;53568;52.164;4.472;2024-02-15T08:40:44;14.21;86.06
66670;DHT22;53568;52.164;4.472;2024-02-15T08:43:13;14.17;86.18
66670;DHT22;53568;52.164;4.472;2024-02-15T08:45:39;14.18;86.33
66670;DHT22;53568;52.164;4.472;2024-02-15T08:48:05;14.25;86.03
66670;DHT22;53568;52.164;4.472;2024-02-15T08:50:31;14.18;86.01
66670;DHT22;53568;52.164;4.472;2024-02-15T08:52:56;14.19;85.83
66670;DHT22;53568;52.164;4.472;2024-02-15T08:55:22;14.21;86.23
66670;DHT22;53568;52.164;4.472;2024-02-15T08:57:52;14.25;85.92
66670;DHT22;53568;52.164;4.472;2024-02-15T09:00:20;14.25;86.01
66670;DHT22;53568;52.164;4.472;2024-02-15T09:02:46;14.24;85.82
66670;DHT22;53568;52.164;4.472;2024-02-15T09:05:13;14.19;85.81
66670;DHT22;53568;52.164;4.472;2024-02-15T09:07:41;14.22;85.96
66670;DHT22;53568;52.164;4.472;2024-02-15T09:10:09;14.25;86.09
66670;DHT22;53568;52.164;4.472;2024-02-15T09:12:38;14.33;85.72
66670;DHT22;53568;52.164;4.472;2024-02-15T09:15:09;14.25;85.68
66670;DHT22;53568;52.164;4.472;2024-02-15T09:17:36;14.24;85.93
66670;DHT22;53568;52.164;4.472;2024-02-15T09:22:32;14.38;85.59
66670;DHT22;53568;52.164;4.472;2024-02-15T09:24:58;14.31;85.67
66670;DHT22;53568;52.164;4.472;2024-02-15T09:27:23;14.32;85.63
66670;DHT22;53568;52.164;4.472;2024-02-15T09:29:49;14.29;85.92
66670;DHT22;53568;52.164;4.472;2024-02-15T09:32:14;14.38;85.69
66670;DHT22;53568;52.164;4.472;2024-02-15T09:34:40;14.39;85.41
66670;DHT22;53568;52.164;4.472;2024-02-15T09:37:07;14.31;85.71
66670;DHT22;53568;52.164;4.472;2024-02-15T09:39:33;14.32;85.80
66670;DHT22;53568;52.164;4.472;2024-02-15T09:41:58;14.36;85.60
66670;DHT22;53568;52.164;4.472;2024-02-15T09:44:25;14.35;85.50
66670;DHT22;53568;52.164;4.472;2024-02-15T09:47:04;14.39;85.55
66670;DHT22;53568;52.164;4.472;2024-02-15T09:49:35;14.32;85.78
66670;DHT22;53568;52.164;4.472;2024-02-15T09:52:03;14.36;85.81
66670;DHT22;53568;52.164;4.472;2024-02-15T09:54:31;14.38;85.52
66670;DHT22;53568;52.164;4.472;2024-02-15T09:57:01;14.36;85.74
66670;DHT22;53568;52.164;4.472;2024-02-15T09:59:28;14.43;85.50
66670;DHT22;53568;52.164;4.472;2024-02-15T10:01:58;14.41;85.62
66670;DHT22;53568;52.164;4.472;2024-02-15T10:04:24;14.48;85.65
66670;DHT22;53568;52.164;4.472;2024-02-15T10:06:51;14.52;85.39
66670;DHT22;53568;52.164;4.472;2024-02-15T10:11:58;14.56;85.45
66670;DHT22;53568;52.164;4.472;2024-02-15T10:14:28;14.66;85.30
66670;DHT22;53568;52.164;4.472;2024-02-15T10:16:54;14.73;85.24
66670;DHT22;53568;52.164;4.472;2024-02-15T10:19:21;14.76;84.94
66670;DHT22;53568;52.164;4.472;2024-02-15T10:21:53;14.76;85.10
66670;DHT22;53568;52.164;4.472;2024-02-15T10:24:23;14.75;85.00
66670;DHT22;53568;52.164;4.472;2024-02-15T10:26:50;14.80;85.19
66670;DHT22;53568;52.164;4.472;2024-02-15T10:29:17;14.76;85.04
66670;DHT22;53568;52.164;4.472;2024-02-15T10:31:59;14.90;85.22
66670;DHT22;53568;52.164;4.472;2024-02-15T10:34:25;14.99;84.77
66670;DHT22;53568;52.164;4.472;2024-02-15T10:37:11;14.87;84.55
66670;DHT22;53568;52.164;4.472;2024-02-15T10:39:37;14.89;84.77
66670;DHT22;53568;52.164;4.472;2024-02-15T10:42:06;14.87;84.63
66670;DHT22;53568;52.164;4.472;2024-02-15T10:44:32;14.95;84.75
66670;DHT22;53568;52.164;4.472;2024-02-15T10:47:00;14.82;85.02
66670;DHT22;53568;52.164;4.472;2024-02-15T10:49:31;14.95;84.73
66670;DHT22;53568;52.164;4.472;2024-02-15T10:51:57;15.03;84.60
66670;DHT22;53568;52.164;4.472;2024-02-15T10:54:47;14.99;84.77
66670;DHT22;53568;52.164;4.472;2024-02-15T10:57:21;15.07;84.60
66670;DHT22;53568;52.164;4.472;2024-02-15T10:59:55;15.02;84.77
66670;DHT22;53568;52.164;4.472;2024-02-15T11:02:28;15.14;84.49
66670;DHT22;53568;52.164;4.472;2024-02-15T11:05:05;15.23;84.22
66670;DHT22;53568;52.164;4.472;2024-02-15T11:07:34;15.14;84.44
66670;DHT22;53568;52.164;4.472;2024-02-15T11:10:02;15.22;84.32
66670;DHT22;53568;52.164;4.472;2024-02-15T11:12:31;15.27;84.18
66670;DHT22;53568;52.164;4.472;2024-02-15T11:14:57;15.28;83.79
66670;DHT22;53568;52.164;4.472;2024-02-15T11:23:03;15.20;84.10
66670;DHT22;53568;52.164;4.472;2024-02-15T11:25:36;15.28;84.19
66670;DHT22;53568;52.164;4.472;2024-02-15T11:30:50;15.53;83.52
66670;DHT22;53568;52.164;4.472;2024-02-15T11:33:28;15.55;83.28
66670;DHT22;53568;52.164;4.472;2024-02-15T11:36:11;15.62;83.21
66670;DHT22;53568;52.164;4.472;2024-02-15T11:38:38;15.67;83.07
66670;DHT22;53568;52.164;4.472;2024-02-15T11:41:09;15.64;83.37
66670;DHT22;53568;52.164;4.472;2024-02-15T11:43:45;15.80;83.11
66670;DHT22;53568;52.164;4.472;2024-02-15T11:46:16;15.81;82.88
66670;DHT22;53568;52.164;4.472;2024-02-15T11:48:45;15.80;82.89
66670;DHT22;53568;52.164;4.472;2024-02-15T11:51:34;15.90;82.60
66670;DHT22;53568;52.164;4.472;2024-02-15T11:54:09;16.01;82.74
66670;DHT22;53568;52.164;4.472;2024-02-15T11:59:12;16.05;82.63
66670;DHT22;53568;52.164;4.472;2024-02-15T12:01:44;16.09;82.69
66670;DHT22;53568;52.164;4.472;2024-02-15T12:04:29;16.19;82.57
66670;DHT22;53568;52.164;4.472;2024-02-15T12:07:14;16.21;82.48
66670;DHT22;53568;52.164;4.472;2024-02-15T12:10:01;16.30;81.89
66670;DHT22;53568;52.164;4.472;2024-02-15T12:12:51;16.38;81.73
66670;DHT22;53568;52.164;4.472;2024-02-15T12:15:36;16.41;81.52
66670;DHT22;53568;52.164;4.472;2024-02-15T12:18:20;16.45;80.97
66670;DHT22;53568;52.164;4.472;2024-02-15T12:21:05;16.55;80.67
66670;DHT22;53568;52.164;4.472;2024-02-15T12:23:33;16.55;80.27
66670;DHT22;53568;52.164;4.472;2024-02-15T12:26:01;16.70;79.88
66670;DHT22;53568;52.164;4.472;2024-02-15T12:28:29;16.76;79.79
66670;DHT22;53568;52.164;4.472;2024-02-15T12:30:56;16.86;79.32
66670;DHT22;53568;52.164;4.472;2024-02-15T12:33:22;16.93;79.23
66670;DHT22;53568;52.164;4.472;2024-02-15T12:35:49;16.82;79.37
66670;DHT22;53568;52.164;4.472;2024-02-15T12:38:17;16.97;79.28
66670;DHT22;53568;52.164;4.472;2024-02-15T12:40:43;17.04;78.91
66670;DHT22;53568;52.164;4.472;2024-02-15T12:43:11;16.99;79.22
66670;DHT22;53568;52.164;4.472;2024-02-15T12:45:39;17.10;78.83
66670;DHT22;53568;52.164;4.472;2024-02-15T12:48:06;17.13;78.62
66670;DHT22;53568;52.164;4.472;2024-02-15T12:50:33;17.09;78.65
66670;DHT22;53568;52.164;4.472;2024-02-15T12:52:59;17.13;78.55
66670;DHT22;53568;52.164;4.472;2024-02-15T12:55:30;17.14;78.48
66670;DHT22;53568;52.164;4.472;2024-02-15T12:58:07;17.13;78.21
66670;DHT22;53568;52.164;4.472;2024-02-15T13:00:39;17.17;78.51
66670;DHT22;53568;52.164;4.472;2024-02-15T13:03:07;17.28;78.04
66670;DHT22;53568;52.164;4.472;2024-02-15T13:05:37;17.34;77.50
66670;DHT22;53568;52.164;4.472;2024-02-15T13:08:03;17.36;77.07
66670;DHT22;53568;52.164;4.472;2024-02-15T13:10:31;17.37;76.82
66670;DHT22;53568;52.164;4.472;2024-02-15T13:12:58;17.43;76.20
66670;DHT22;53568;52.164;4.472;2024-02-15T13:15:24;17.44;76.01
66670;DHT22;53568;52.164;4.472;2024-02-15T13:17:58;17.60;75.41
66670;DHT22;53568;52.164;4.472;2024-02-15T13:20:24;17.57;74.91
66670;DHT22;53568;52.164;4.472;2024-02-15T13:22:58;17.55;74.44
66670;DHT22;53568;52.164;4.472;2024-02-15T13:25:30;17.66;74.52
66670;DHT22;53568;52.164;4.472;2024-02-15T13:27:56;17.84;74.11
66670;DHT22;53568;52.164;4.472;2024-02-15T13:30:24;17.91;73.65
66670;DHT22;53568;52.164;4.472;2024-02-15T13:32:53;17.92;72.87
66670;DHT22;53568;52.164;4.472;2024-02-15T13:35:21;17.94;73.23
66670;DHT22;53568;52.164;4.472;2024-02-15T13:37:53;18.05;72.36
66670;DHT22;53568;52.164;4.472;2024-02-15T13:40:21;18.13;72.25
66670;DHT22;53568;52.164;4.472;2024-02-15T13:42:50;18.15;71.79
66670;DHT22;53568;52.164;4.472;2024-02-15T13:45:23;17.98;71.26
66670;DHT22;53568;52.164;4.472;2024-02-15T13:47:50;18.01;70.74
66670;DHT22;53568;52.164;4.472;2024-02-15T13:50:17;18.02;70.52
66670;DHT22;53568;52.164;4.472;2024-02-15T13:52:44;18.01;70.64
66670;DHT22;53568;52.164;4.472;2024-02-15T13:55:11;18.08;70.13
66670;DHT22;53568;52.164;4.472;2024-02-15T13:57:38;18.06;69.53
66670;DHT22;53568;52.164;4.472;2024-02-15T14:00:04;18.15;69.59
66670;DHT22;53568;52.164;4.472;2024-02-15T14:02:34;18.12;69.71
66670;DHT22;53568;52.164;4.472;2024-02-15T14:05:00;18.21;69.52
66670;DHT22;53568;52.164;4.472;2024-02-15T14:07:25;18.29;69.22
66670;DHT22;53568;52.164;4.472;2024-02-15T14:09:51;18.21;69.47
66670;DHT22;53568;52.164;4.472;2024-02-15T14:12:16;18.09;69.64
66670;DHT22;53568;52.164;4.472;2024-02-15T14:14:42;17.94;69.59
66670;DHT22;53568;52.164;4.472;2024-02-15T14:17:08;17.95;69.68
66670;DHT22;53568;52.164;4.472;2024-02-15T14:19:34;17.94;69.48
66670;DHT22;53568;52.164;4.472;2024-02-15T14:22:00;17.78;70.14
66670;DHT22;53568;52.164;4.472;2024-02-15T14:24:27;17.85;70.28
66670;DHT22;53568;52.164;4.472;2024-02-15T14:26:52;17.87;70.34
66670;DHT22;53568;52.164;4.472;2024-02-15T14:29:18;17.90;70.48
66670;DHT22;53568;52.164;4.472;2024-02-15T14:31:53;17.92;70.43
66670;DHT22;53568;52.164;4.472;2024-02-15T14:34:37;17.95;70.32
66670;DHT22;53568;52.164;4.472;2024-02-15T14:37:02;17.90;70.57
66670;DHT22;53568;52.164;4.472;2024-02-15T14:39:31;17.90;70.41
66670;DHT22;53568;52.164;4.472;2024-02-15T14:41:56;17.98;69.67
66670;DHT22;53568;52.164;4.472;2024-02-15T14:44:22;17.91;69.32
66670;DHT22;53568;52.164;4.472;2024-02-15T14:46:48;17.88;69.47
66670;DHT22;53568;52.164;4.472;2024-02-15T14:49:14;17.94;69.17
66670;DHT22;53568;52.164;4.472;2024-02-15T14:51:40;17.92;69.30
66670;DHT22;53568;52.164;4.472;2024-02-15T14:54:07;17.94;68.95
66670;DHT22;53568;52.164;4.472;2024-02-15T14:56:33;17.90;68.99
66670;DHT22;53568;52.164;4.472;2024-02-15T14:58:59;17.85;69.02
66670;DHT22;53568;52.164;4.472;2024-02-15T15:01:26;17.75;69.13
66670;DHT22;53568;52.164;4.472;2024-02-15T15:03:56;17.70;69.19
66670;DHT22;53568;52.164;4.472;2024-02-15T15:06:23;17.67;68.91
66670;DHT22;53568;52.164;4.472;2024-02-15T15:09:08;17.57;69.11
66670;DHT22;53568;52.164;4.472;2024-02-15T15:12:08;17.61;68.91
66670;DHT22;53568;52.164;4.472;2024-02-15T15:14:52;17.71;68.79
66670;DHT22;53568;52.164;4.472;2024-02-15T15:17:18;17.68;69.18
66670;DHT22;53568;52.164;4.472;2024-02-15T15:19:46;17.64;69.81
66670;DHT22;53568;52.164;4.472;2024-02-15T15:22:11;17.54;69.96
66670;DHT22;53568;52.164;4.472;2024-02-15T15:24:37;17.37;70.53
66670;DHT22;53568;52.164;4.472;2024-02-15T15:27:02;17.36;70.47
66670;DHT22;53568;52.164;4.472;2024-02-15T15:29:30;17.23;70.90
66670;DHT22;53568;52.164;4.472;2024-02-15T15:31:56;17.20;71.10
66670;DHT22;53568;52.164;4.472;2024-02-15T15:34:22;17.14;71.22
66670;DHT22;53568;52.164;4.472;2024-02-15T15:36:48;17.07;71.38
66670;DHT22;53568;52.164;4.472;2024-02-15T15:39:15;17.19;71.17
66670;DHT22;53568;52.164;4.472;2024-02-15T15:41:44;17.10;71.26
66670;DHT22;53568;52.164;4.472;2024-02-15T15:44:10;17.12;71.19
66670;DHT22;53568;52.164;4.472;2024-02-15T15:46:35;17.10;71.22
66670;DHT22;53568;52.164;4.472;2024-02-15T15:49:02;17.14;71.18
66670;DHT22;53568;52.164;4.472;2024-02-15T15:51:29;17.16;71.42
66670;DHT22;53568;52.164;4.472;2024-02-15T15:53:55;17.07;71.92
66670;DHT22;53568;52.164;4.472;2024-02-15T15:56:20;17.10;72.11